KTOR

Torrington Municipal Airport

Torrington, Wyoming, USA
METAR KTOR 200053Z AUTO 32006KT 10SM CLR 13/M03 A2968 RMK AO2 SLP041 T01281033
Observed Flight Rules
Jan-20 @ 00:53 UTC (29 minutes ago) Visual Flight Rules
Wind Visibility Clouds
320° at 6 knots 10 miles
  • Clear skies
Temperatures Readings
Current 13°C / 55°F
Dewpoint -3°C / 27°F
Humidity 33%
Altimeter 29.68" Hg
Pressure 1004.1 hPa
Elevation 1277
METAR KTOR 200053Z AUTO 32006KT 10SM CLR 13/M03 A2968 RMK AO2 SLP041 T01281033
Observed Flight Rules
Jan-20 @ 00:53 UTC
(29 minutes ago)
VFR
Wind Visibility
320° at 6 knots 10 miles
Clouds
  • Clear skies
Temperature Dewpoint
13°C / 55°F -3°C / 27°F
Humidity Altimeter Pressure
33% 29.68" Hg 1004.1 hPa